Aérodrome :
LOGIN :

S'inscrire | Disclaimer

   EN    FR    IT 

 










Légende :    VFR   VFR Marginal   IFR   IFR Intensif   IFR Très Intensif
Visi : 
Plafond : 
>= 8 km
>= 3000ft
5 à 8 km
1000 à 3000 ft
1500m à 5 km
500 à 1000 ft
800 à 1500m
200 à 500 ft
< 800m
< 200 ft
Symboles :   Orages  Brouillard  Fortes neiges  Fortes précipitations  Vent > 20 kt
SIGMETs :   Divers  Orages  Givrage  Turbulence  Onde Orograph.  Cendres Volcan.






- Altitude de l'aérodrome : 776 ft
- Code IATA : RMS


ETAR - Ramstein Air Base

DERNIER METAR :
  • 170430Z AUTO 23004KT 9999 -RA BKN025 15/14 A2986 RMK AO2 RAE21DZB21E22RAB22 BKN V SCT SLP114 $

METARs EXPIRÉS :
  • 170400Z AUTO 23004KT 9999 -RA FEW010 SCT017 OVC022 15/14 A2986 RMK AO2 CIG 017V022 CIG 020 RWY08 SLP114 $
  • 170340Z AUTO 27004KT 8000 RA BR FEW003 BKN009 OVC014 15/14 A2986 RMK AO2 CIG 009V011 SLP114 $
  • 170315Z AUTO 00000KT 9000 -RA BR FEW003 SCT011 BKN018 OVC023 15/14 A2985 RMK AO2 CIG 009V023 SLP110 $
  • 170310Z AUTO 00000KT 8000 -RA BR FEW003 SCT009 SCT019 OVC023 15/14 A2985 RMK AO2 CIG 009V023 CIG 019 RWY08 SLP110 $
  • 170255Z AUTO 00000KT 6000 RA BR FEW003 BKN009 OVC017 15/14 A2985 RMK AO2 VIS 4400 RWY08 SLP110 P0014 60023 T01530142 55002 $
  • 170245Z AUTO 00000KT 9000 -RA BR BKN009 BKN016 OVC021 15/14 A2985 RMK AO2 CIG 009V023 BKN009 V SCT SLP110 $
  • 170225Z AUTO 00000KT 6000 RA BR FEW019 OVC025 15/14 A2985 RMK AO2 CIG 025V031 CIG 012 RWY08 SLP110 $
  • 170155Z AUTO 00000KT 9999 -RA SCT030 BKN035 16/14 A2985 RMK AO2 SLP110 P0007 T01550140 $
  • 170135Z AUTO 00000KT 9999 RA BKN026 BKN032 16/14 A2985 RMK AO2 CIG 022V034 SLP110 $
  • 170110Z AUTO 19003KT 9999 -RA SCT015 BKN021 16/14 A2985 RMK AO2 CIG 018V039 SLP110 $
  • 170105Z AUTO 00000KT 9999 -RA FEW010 BKN018 BKN023 BKN030 16/14 A2985 RMK AO2 CIG 018V039 SLP110 $
  • 170100Z AUTO 21003KT 9999 -RA FEW014 SCT021 SCT030 BKN039 16/14 A2985 RMK AO2 SLP110 $
  • 170027Z AUTO 22003KT 9999 -RA FEW017 BKN027 BKN032 16/14 A2986 RMK AO2 RAE08DZB17E19RAB19 CIG 026V032 CIG 022 RWY08 SLP114 $
  • 170017Z AUTO 21004KT 9999 -DZ SCT022 16/14 A2986 RMK AO2 RAE08DZB17 SLP114 $
  • 162355Z AUTO 22003KT 9999 -RA BKN024 16/13 A2986 RMK AO2 RAB45 SLP113 P0000 60000 T01590134 10183 20159 53002 $

TAF AMD TAF ETAR
Valide du 17 à 03h jusqu'au 18 à 08h UTC


170357Z 1703/1808 19006KT 9000 -SHRA BR OVC015 QNH2987INS
BECMG 1706/1707 23010G20KT 9000 -SHRA BKN020 QNH2990INS
BECMG 1716/1717 23009KT 9999 NSW SCT030 QNH2996INS
BECMG 1722/1723 16003KT 8000 -SHRA BR SCT060 QNH2998INS TX19/1712Z TN14/1703Z



MET'MAP, la Météo Aéronautique d'un coup d'oeil ! - Copyright ORBIFLY Décembre 2007 - Disclaimer

ORBIFLY MET'MAP TEAM :

Programmation & Développement : Alexandra Zaïnal
Sur une idée originale de : Baudouin d'Aumeries
Soutien technique & logistique : Manuel Goepfert
Assistance : Marc-Olivier Méhu




SOURCES & CREDITS :

   NOAA